Αρχική σελίδα
METAR-TAF:

METAR-TAF

Αεροδρόμια :

Shenandoah Municipal Airport

Shenandoah, Αϊόβα, Ηνωμένες Πολιτείες Αμερικής

γεωγραφικό πλάτος: 40-45N, γεωγραφικό μήκος: 095-25W, υψόμετρο: 296 μ

Παρών καιρός

Η αναφορά έγινε 19 λεπτά πριν, στις 11:35 UTC
Άνεμος 7 kt από Δ/BΔ
Θερμοκρασία 0°C
Υγρασία 93%
Πίεση 1011 hPa
Ορατότητα: 16.1 χλμ
Νεφοσκεπής σε ύψος 4300 πόδια

METAR: KSDA 131135Z AUTO 29007KT 10SM OVC043 M00/M01 A2985 RMK AO2

Χρόνος: 05:54 (11:54 UTC)


TAF: λείπει

Μετεωρολογικές αναφορές και προγνώσεις για περισσότερα από 4000 αεροδρόμια (δελτία METAR και TAF).

Οι διαθέσιμοι σταθμοί απεικονίζονται στο χάρτη με κίτρινες και κόκκινες κουκκίδες.

Μετακινήστε το ποντίκι πάνω από τις κουκκίδες για να δείτε το όνομα του σταθμού.

Στη συνέχεια, κάντε κλικ για να δείτε τις μετεωρολογικές αναφορές και τις προγνώσεις καιρού.

Για να αλλάξετε το χάρτη: κάντε κλικ στα πράσινα κουμπιά με τον μαύρο σταυρό για να ζουμάρετε, στο πράσινο κουμπί με την παύλα για να αφαιρέσετε το ζουμ ή στα πράσινα βέλη για να αντιπαραβάλλετε χάρτες.


METAR-TAF: